Time;durP1;ratioP1;P1;durP2;ratioP2;P2;SDS_P1;SDS_P2;PMS_P1;PMS_P2;Temp;Humidity;BMP_temperature;BMP_pressure;BME280_temperature;BME280_humidity;BME280_pressure;Samples;Min_cycle;Max_cycle;Signal;HPM_P1;HPM_P2
2021/12/12 00:01:53;;;;;;;12.30;3.63;;;3.70;99.90;;;;;;5068732;28;20718;-80
2021/12/12 00:04:31;;;;;;;0.40;0.35;;;3.80;99.90;;;;;;5066336;28;20261;-79
2021/12/12 00:07:04;;;;;;;1.30;1.02;;;3.70;99.90;;;;;;5065195;28;20198;-78
2021/12/12 00:09:34;;;;;;;2.58;2.38;;;3.70;99.90;;;;;;5064016;28;20206;-79
2021/12/12 00:12:05;;;;;;;2.05;1.20;;;3.80;99.90;;;;;;5063810;28;20241;-79
2021/12/12 00:14:35;;;;;;;0.55;0.55;;;3.80;99.90;;;;;;5064110;28;20195;-79
2021/12/12 00:17:07;;;;;;;0.50;0.50;;;3.80;99.90;;;;;;5067740;28;20202;-78
2021/12/12 00:19:35;;;;;;;5.60;1.80;;;3.80;99.90;;;;;;5064963;28;20183;-79
2021/12/12 00:22:06;;;;;;;6.53;1.55;;;3.80;99.90;;;;;;5062092;28;20214;-79
2021/12/12 00:24:33;;;;;;;0.63;0.63;;;3.80;99.90;;;;;;5064136;28;20588;-79
2021/12/12 00:27:01;;;;;;;1.95;1.27;;;3.80;99.90;;;;;;5066822;28;20198;-81
2021/12/12 00:29:28;;;;;;;5.65;2.45;;;3.80;99.90;;;;;;5068688;28;20579;-79
2021/12/12 00:31:59;;;;;;;0.45;0.45;;;3.80;99.90;;;;;;5069352;28;20237;-81
2021/12/12 00:34:28;;;;;;;1.42;1.08;;;3.80;99.90;;;;;;5068614;28;20737;-80
2021/12/12 00:36:56;;;;;;;1.30;1.20;;;3.80;99.90;;;;;;5068927;28;20207;-80
2021/12/12 00:39:26;;;;;;;0.80;0.70;;;3.80;99.90;;;;;;5068380;28;20218;-78
2021/12/12 00:41:57;;;;;;;0.93;0.82;;;3.80;99.90;;;;;;5069399;28;20219;-81
2021/12/12 00:44:25;;;;;;;0.82;0.82;;;3.90;99.90;;;;;;5069159;28;20203;-81
2021/12/12 00:46:54;;;;;;;0.57;0.57;;;3.90;99.90;;;;;;5068854;28;20206;-81
2021/12/12 00:49:22;;;;;;;1.17;1.15;;;3.90;99.90;;;;;;5067564;28;20201;-80
2021/12/12 00:51:50;;;;;;;0.50;0.50;;;3.80;99.90;;;;;;5068002;28;20233;-81
2021/12/12 00:54:19;;;;;;;1.15;1.08;;;3.80;99.90;;;;;;5068625;28;20583;-80
2021/12/12 00:56:46;;;;;;;0.80;0.80;;;3.80;99.90;;;;;;5068144;28;20205;-80
2021/12/12 00:59:14;;;;;;;2.70;2.42;;;3.80;99.90;;;;;;5067881;28;20197;-81
2021/12/12 01:01:45;;;;;;;1.50;1.23;;;3.80;99.90;;;;;;5068099;28;20285;-80
2021/12/12 01:04:16;;;;;;;2.80;2.63;;;3.70;99.90;;;;;;5068561;28;20183;-80
2021/12/12 01:06:43;;;;;;;1.88;1.52;;;3.70;99.90;;;;;;5068822;28;20183;-81
2021/12/12 01:09:15;;;;;;;4.57;1.35;;;3.70;99.90;;;;;;5067967;28;20207;-81
2021/12/12 01:11:46;;;;;;;0.40;0.40;;;3.70;99.90;;;;;;5068233;28;20221;-80
2021/12/12 01:14:17;;;;;;;1.05;1.05;;;3.70;99.90;;;;;;5068165;28;20210;-81
2021/12/12 01:16:47;;;;;;;1.60;1.60;;;3.70;99.90;;;;;;5067895;28;20179;-78
2021/12/12 01:19:19;;;;;;;0.50;0.50;;;3.70;99.90;;;;;;5067730;28;20201;-81
2021/12/12 01:21:49;;;;;;;1.98;1.63;;;3.70;99.90;;;;;;5067441;28;20223;-81
2021/12/12 01:24:21;;;;;;;0.40;0.40;;;3.70;99.90;;;;;;5065779;28;20682;-76
2021/12/12 01:26:49;;;;;;;0.80;0.80;;;3.70;99.90;;;;;;5067732;28;20199;-81
2021/12/12 01:29:16;;;;;;;0.40;0.40;;;3.80;99.90;;;;;;5065137;28;20198;-80
2021/12/12 01:31:48;;;;;;;2.45;2.35;;;3.80;99.90;;;;;;5065816;28;20214;-80
2021/12/12 01:34:17;;;;;;;1.88;1.45;;;3.90;99.90;;;;;;5066451;28;20213;-79
2021/12/12 01:37:05;;;;;;;2.88;1.40;;;3.90;99.90;;;;;;5065771;28;20201;-81
2021/12/12 01:39:35;;;;;;;1.10;1.10;;;3.90;99.90;;;;;;5065918;28;20199;-80
2021/12/12 01:42:06;;;;;;;0.40;0.40;;;3.90;99.90;;;;;;5066758;28;20218;-79
2021/12/12 01:44:38;;;;;;;3.28;1.65;;;3.90;99.90;;;;;;5066623;28;20219;-80
2021/12/12 01:47:08;;;;;;;2.95;2.05;;;4.00;99.90;;;;;;5066610;28;20183;-80
2021/12/12 01:49:40;;;;;;;1.45;1.33;;;4.00;99.90;;;;;;5064883;28;20206;-80
2021/12/12 01:52:09;;;;;;;0.45;0.40;;;4.00;99.90;;;;;;5066563;28;20223;-80
2021/12/12 01:54:44;;;;;;;2.90;1.92;;;4.00;99.90;;;;;;5066002;28;20537;-80
2021/12/12 01:57:14;;;;;;;0.68;0.68;;;4.00;99.90;;;;;;5066932;28;20178;-80
2021/12/12 01:59:42;;;;;;;1.08;0.80;;;4.10;99.90;;;;;;5065741;28;20189;-80
2021/12/12 02:02:12;;;;;;;0.82;0.82;;;4.10;99.90;;;;;;5066082;28;20230;-80
2021/12/12 02:04:43;;;;;;;0.60;0.60;;;4.10;99.90;;;;;;5064854;28;20198;-80
2021/12/12 02:07:12;;;;;;;1.08;0.77;;;4.10;99.90;;;;;;5066919;28;20183;-80
2021/12/12 02:09:40;;;;;;;1.13;0.60;;;4.20;99.90;;;;;;5065917;28;20194;-79
2021/12/12 02:12:08;;;;;;;0.65;0.65;;;4.20;99.90;;;;;;5066240;28;20218;-80
2021/12/12 02:14:37;;;;;;;0.50;0.40;;;4.20;99.90;;;;;;5069544;28;20200;-80
2021/12/12 02:17:11;;;;;;;0.50;0.50;;;4.20;99.90;;;;;;5068954;28;20269;-81
2021/12/12 02:19:47;;;;;;;0.60;0.60;;;4.20;99.90;;;;;;5069618;28;20180;-80
2021/12/12 02:22:35;;;;;;;0.50;0.40;;;4.20;99.90;;;;;;5068957;28;20214;-77
2021/12/12 02:36:11;;;;;;;0.65;0.65;;;4.30;99.90;;;;;;5070632;28;20201;-80
2021/12/12 02:38:40;;;;;;;2.60;1.25;;;4.30;99.90;;;;;;5067975;28;20201;-80
2021/12/12 02:41:10;;;;;;;0.60;0.60;;;4.30;99.90;;;;;;5064880;28;20218;-80
2021/12/12 02:43:40;;;;;;;1.95;1.33;;;4.30;99.90;;;;;;5065577;28;20301;-80
2021/12/12 02:46:10;;;;;;;3.80;1.63;;;4.30;99.90;;;;;;5065031;28;20203;-80
2021/12/12 02:48:40;;;;;;;1.50;0.85;;;4.40;99.90;;;;;;5065805;28;20628;-80
2021/12/12 02:51:11;;;;;;;6.82;2.28;;;4.40;99.90;;;;;;5064136;28;20246;-79
2021/12/12 02:53:43;;;;;;;1.50;1.40;;;4.40;99.90;;;;;;5087728;22;20232;-78
2021/12/12 02:56:12;;;;;;;0.70;0.60;;;4.40;99.90;;;;;;5071513;28;20556;-78
2021/12/12 02:58:40;;;;;;;0.40;0.40;;;4.40;99.90;;;;;;5070975;28;20559;-78
2021/12/12 03:01:12;;;;;;;0.63;0.63;;;4.50;99.90;;;;;;5071205;28;20213;-78
2021/12/12 03:03:41;;;;;;;5.38;1.65;;;4.50;99.90;;;;;;5071063;28;20703;-74
2021/12/12 03:06:11;;;;;;;2.17;2.05;;;4.50;99.90;;;;;;5071275;28;20227;-78
2021/12/12 03:08:41;;;;;;;0.50;0.40;;;4.50;99.90;;;;;;5071206;28;20227;-77
2021/12/12 03:11:09;;;;;;;0.50;0.40;;;4.50;99.90;;;;;;5071186;28;20197;-79
2021/12/12 03:13:37;;;;;;;1.35;0.98;;;4.50;99.90;;;;;;5070349;28;20210;-77
2021/12/12 03:16:05;;;;;;;0.52;0.50;;;4.50;99.90;;;;;;5071286;28;20197;-78
2021/12/12 03:18:38;;;;;;;1.35;0.70;;;4.50;99.90;;;;;;5071402;28;20221;-78
2021/12/12 03:21:15;;;;;;;2.83;1.25;;;4.50;99.90;;;;;;5071249;28;20186;-78
2021/12/12 03:23:45;;;;;;;0.88;0.88;;;4.50;99.90;;;;;;5070789;28;20594;-77
2021/12/12 03:26:16;;;;;;;1.02;0.65;;;4.50;99.90;;;;;;5074509;28;20210;-78
2021/12/12 03:28:46;;;;;;;0.82;0.65;;;4.60;99.90;;;;;;5075008;28;20182;-77
2021/12/12 03:31:17;;;;;;;1.35;1.25;;;4.60;99.90;;;;;;5074391;28;20201;-78
2021/12/12 03:33:44;;;;;;;0.80;0.63;;;4.60;99.90;;;;;;5075005;28;20209;-78
2021/12/12 03:36:14;;;;;;;0.65;0.63;;;4.60;99.90;;;;;;5074411;28;20237;-78
2021/12/12 03:38:46;;;;;;;1.48;1.38;;;4.60;99.90;;;;;;5074591;28;20197;-78
2021/12/12 03:41:19;;;;;;;1.02;0.98;;;4.60;99.90;;;;;;5074613;28;20175;-78
2021/12/12 03:43:51;;;;;;;2.50;1.10;;;4.60;99.90;;;;;;5074569;28;20214;-78
2021/12/12 03:46:18;;;;;;;0.90;0.70;;;4.60;99.90;;;;;;5074724;28;20202;-77
2021/12/12 03:48:45;;;;;;;4.20;1.90;;;4.60;99.90;;;;;;5074524;28;20194;-75
2021/12/12 03:51:16;;;;;;;2.35;1.52;;;4.60;99.90;;;;;;5074569;28;20194;-78
2021/12/12 03:53:43;;;;;;;0.77;0.75;;;4.50;99.90;;;;;;5073768;28;20222;-77
2021/12/12 03:56:13;;;;;;;0.98;0.70;;;4.50;99.90;;;;;;5073851;28;20260;-78
2021/12/12 03:58:40;;;;;;;0.40;0.40;;;4.50;99.90;;;;;;5074446;28;20204;-78
2021/12/12 04:01:10;;;;;;;1.17;0.70;;;4.40;99.90;;;;;;5074041;28;20194;-78
2021/12/12 04:03:38;;;;;;;0.40;0.40;;;4.40;99.90;;;;;;5074056;28;20224;-78
2021/12/12 04:06:09;;;;;;;1.60;0.50;;;4.40;99.90;;;;;;5073748;28;20218;-78
2021/12/12 04:08:37;;;;;;;1.08;1.08;;;4.30;99.90;;;;;;5074241;28;20555;-78
2021/12/12 04:11:17;;;;;;;1.35;1.05;;;4.30;99.90;;;;;;5073800;28;20194;-79
2021/12/12 04:13:48;;;;;;;0.60;0.60;;;4.30;99.90;;;;;;5073835;28;20218;-78
2021/12/12 04:16:15;;;;;;;12.02;2.78;;;4.30;99.90;;;;;;5073935;28;20261;-78
2021/12/12 04:18:43;;;;;;;6.47;3.72;;;4.30;99.90;;;;;;5073771;28;20209;-78
2021/12/12 04:21:12;;;;;;;0.40;0.40;;;4.30;99.90;;;;;;5074017;28;20202;-78
2021/12/12 04:23:40;;;;;;;0.40;0.40;;;4.30;99.90;;;;;;5073784;28;20527;-73
2021/12/12 04:26:13;;;;;;;10.52;2.10;;;4.30;99.90;;;;;;5073710;28;20214;-78
2021/12/12 04:28:41;;;;;;;0.50;0.50;;;4.30;99.90;;;;;;5074105;28;20182;-77
2021/12/12 04:31:09;;;;;;;0.98;0.98;;;4.30;99.90;;;;;;5073053;28;20199;-78
2021/12/12 04:33:37;;;;;;;2.35;1.25;;;4.30;99.90;;;;;;5073709;28;20225;-78
2021/12/12 04:36:04;;;;;;;1.23;0.70;;;4.30;99.90;;;;;;5073319;28;20276;-78
2021/12/12 04:38:31;;;;;;;1.58;1.30;;;4.30;99.90;;;;;;5073106;28;20201;-78
2021/12/12 04:40:57;;;;;;;1.05;1.05;;;4.30;99.90;;;;;;5073763;28;20197;-78
2021/12/12 04:43:24;;;;;;;3.58;3.28;;;4.40;99.90;;;;;;5073222;28;20241;-76
2021/12/12 04:46:06;;;;;;;0.77;0.77;;;4.40;99.90;;;;;;5073616;28;20217;-78
2021/12/12 04:51:33;;;;;;;0.50;0.50;;;4.40;99.90;;;;;;5062334;28;20190;-77
2021/12/12 04:54:07;;;;;;;1.15;0.50;;;4.40;99.90;;;;;;5073274;28;20304;-78
2021/12/12 04:56:45;;;;;;;0.40;0.40;;;4.40;99.90;;;;;;5075618;28;20220;-79
2021/12/12 04:59:17;;;;;;;2.67;2.03;;;4.50;99.90;;;;;;5073807;28;20671;-78
2021/12/12 05:01:48;;;;;;;0.50;0.50;;;4.50;99.90;;;;;;5073226;28;20204;-79
2021/12/12 05:04:23;;;;;;;2.25;0.65;;;4.50;99.90;;;;;;5072758;28;20230;-78
2021/12/12 05:06:58;;;;;;;0.50;0.50;;;4.50;99.90;;;;;;5072899;28;20198;-77
2021/12/12 05:09:28;;;;;;;0.40;0.40;;;4.50;99.90;;;;;;5072695;28;20197;-78
2021/12/12 05:12:00;;;;;;;0.40;0.30;;;4.40;99.90;;;;;;5072336;28;20190;-78
2021/12/12 05:14:34;;;;;;;0.40;0.40;;;4.40;99.90;;;;;;5072681;28;20200;-78
2021/12/12 05:17:06;;;;;;;1.10;1.08;;;4.40;99.90;;;;;;5072976;28;20325;-78
2021/12/12 05:19:35;;;;;;;1.95;1.00;;;4.40;99.90;;;;;;5072494;28;20233;-79
2021/12/12 05:22:08;;;;;;;1.40;0.82;;;4.40;99.90;;;;;;5072316;28;20218;-78
2021/12/12 05:24:38;;;;;;;0.40;0.30;;;4.40;99.90;;;;;;5072444;28;20690;-78
2021/12/12 05:27:07;;;;;;;0.70;0.70;;;4.40;99.90;;;;;;5073045;28;20206;-78
2021/12/12 05:29:38;;;;;;;0.93;0.82;;;4.40;99.90;;;;;;5072157;28;20205;-78
2021/12/12 05:32:07;;;;;;;1.45;1.25;;;4.40;99.90;;;;;;5072258;28;20213;-77
2021/12/12 05:34:38;;;;;;;0.55;0.55;;;4.40;99.90;;;;;;5072387;28;20194;-78
2021/12/12 05:37:05;;;;;;;0.80;0.80;;;4.40;99.90;;;;;;5072656;28;20178;-78
2021/12/12 05:39:34;;;;;;;0.60;0.60;;;4.40;99.90;;;;;;5071941;28;20204;-78
2021/12/12 05:42:01;;;;;;;1.55;1.45;;;4.40;99.90;;;;;;5072394;28;20591;-78
2021/12/12 05:44:30;;;;;;;0.77;0.77;;;4.40;99.90;;;;;;5072509;28;20289;-78
2021/12/12 05:46:58;;;;;;;10.95;1.33;;;4.40;99.90;;;;;;5071600;28;20206;-77
2021/12/12 05:49:25;;;;;;;0.63;0.63;;;4.40;99.90;;;;;;5072327;28;20205;-78
2021/12/12 05:51:54;;;;;;;0.95;0.95;;;4.40;99.90;;;;;;5072069;28;20204;-77
2021/12/12 05:54:23;;;;;;;1.67;1.40;;;4.40;99.90;;;;;;5072598;28;20217;-79
2021/12/12 05:56:51;;;;;;;4.00;2.05;;;4.40;99.90;;;;;;5072712;28;20201;-79
2021/12/12 05:59:18;;;;;;;1.40;1.30;;;4.40;99.90;;;;;;5072569;28;20201;-78
2021/12/12 06:01:45;;;;;;;0.95;0.82;;;4.40;99.90;;;;;;5072285;28;20190;-78
2021/12/12 06:04:12;;;;;;;1.35;1.25;;;4.40;99.90;;;;;;5072665;28;20216;-78
2021/12/12 06:06:41;;;;;;;3.97;0.93;;;4.40;99.90;;;;;;5071741;28;20216;-78
2021/12/12 06:09:12;;;;;;;0.98;0.85;;;4.40;99.90;;;;;;5072168;28;20202;-78
2021/12/12 06:11:42;;;;;;;1.80;1.70;;;4.40;99.90;;;;;;5072261;28;20202;-78
2021/12/12 06:14:10;;;;;;;3.08;1.35;;;4.40;99.90;;;;;;5071641;28;20209;-78
2021/12/12 06:16:38;;;;;;;1.20;1.20;;;4.40;99.90;;;;;;5072042;28;20193;-79
2021/12/12 06:19:08;;;;;;;0.80;0.60;;;4.40;99.90;;;;;;5072170;28;20190;-79
2021/12/12 06:21:36;;;;;;;0.95;0.80;;;4.40;99.90;;;;;;5072130;28;20205;-78
2021/12/12 06:24:03;;;;;;;0.52;0.52;;;4.40;99.90;;;;;;5072142;28;20202;-78
2021/12/12 06:26:32;;;;;;;1.95;1.17;;;4.50;99.90;;;;;;5071609;28;20213;-78
2021/12/12 06:28:59;;;;;;;3.95;1.90;;;4.50;99.90;;;;;;5072220;28;20209;-76
2021/12/12 06:31:26;;;;;;;2.13;2.03;;;4.50;99.90;;;;;;5071759;28;20650;-78
2021/12/12 06:33:54;;;;;;;3.65;1.65;;;4.50;99.90;;;;;;5072591;28;20613;-78
2021/12/12 06:36:21;;;;;;;0.77;0.77;;;4.50;99.90;;;;;;5071840;28;20547;-78
2021/12/12 06:38:51;;;;;;;1.25;1.25;;;4.50;99.90;;;;;;5071966;28;20197;-76
2021/12/12 06:41:20;;;;;;;0.70;0.70;;;4.50;99.90;;;;;;5072512;28;20198;-78
2021/12/12 06:43:49;;;;;;;0.77;0.73;;;4.60;99.90;;;;;;5073450;28;20218;-78
2021/12/12 06:46:16;;;;;;;2.08;1.63;;;4.60;99.90;;;;;;5073034;28;20544;-79
2021/12/12 06:48:43;;;;;;;1.80;1.70;;;4.60;99.90;;;;;;5072275;28;20212;-79
2021/12/12 06:51:11;;;;;;;1.52;1.40;;;4.60;99.90;;;;;;5072428;28;20197;-79
2021/12/12 06:53:41;;;;;;;0.40;0.40;;;4.60;99.90;;;;;;5071815;28;20226;-78
2021/12/12 06:56:09;;;;;;;0.70;0.70;;;4.60;99.90;;;;;;5072021;28;20699;-78
2021/12/12 06:58:37;;;;;;;1.35;1.05;;;4.70;99.90;;;;;;5072997;28;20209;-78
2021/12/12 07:01:10;;;;;;;2.00;0.70;;;4.70;99.90;;;;;;5076136;28;20194;-78
2021/12/12 07:03:37;;;;;;;1.08;0.98;;;4.60;99.90;;;;;;5075129;28;20214;-78
2021/12/12 07:06:05;;;;;;;1.13;0.82;;;4.70;99.90;;;;;;5076195;28;20194;-78
2021/12/12 07:08:32;;;;;;;1.83;1.60;;;4.70;99.90;;;;;;5075616;28;20559;-78
2021/12/12 07:10:59;;;;;;;0.95;0.95;;;4.70;99.90;;;;;;5075497;28;20198;-78
2021/12/12 07:13:26;;;;;;;1.33;1.27;;;4.70;99.90;;;;;;5075128;28;20214;-78
2021/12/12 07:15:57;;;;;;;3.63;2.72;;;4.70;99.90;;;;;;5075422;28;20197;-78
2021/12/12 07:18:29;;;;;;;1.70;1.60;;;4.70;99.90;;;;;;5075028;28;20197;-78
2021/12/12 07:21:00;;;;;;;0.85;0.85;;;4.70;99.90;;;;;;5076026;28;20183;-78
2021/12/12 07:23:28;;;;;;;2.33;2.13;;;4.80;99.90;;;;;;5075312;28;20214;-79
2021/12/12 07:25:58;;;;;;;1.48;0.90;;;4.80;99.90;;;;;;5074892;28;20201;-77
2021/12/12 07:28:27;;;;;;;0.85;0.85;;;4.80;99.90;;;;;;5074850;28;20210;-79
2021/12/12 07:30:54;;;;;;;1.30;1.20;;;4.80;99.90;;;;;;5074271;28;20694;-78
2021/12/12 07:33:21;;;;;;;1.10;1.10;;;4.80;99.90;;;;;;5074978;28;20575;-78
2021/12/12 07:35:51;;;;;;;2.63;1.13;;;4.80;99.90;;;;;;5074919;28;20197;-77
2021/12/12 07:38:18;;;;;;;0.55;0.55;;;4.90;99.90;;;;;;5073959;28;20194;-78
2021/12/12 07:40:46;;;;;;;1.00;0.90;;;4.90;99.90;;;;;;5074532;28;20194;-76
2021/12/12 07:43:13;;;;;;;0.82;0.82;;;4.90;99.90;;;;;;5074229;28;20226;-78
2021/12/12 07:45:40;;;;;;;7.65;1.88;;;4.90;99.90;;;;;;5074991;28;20567;-77
2021/12/12 07:48:11;;;;;;;2.25;1.88;;;4.90;99.90;;;;;;5074159;28;20701;-78
2021/12/12 07:50:39;;;;;;;2.00;1.90;;;4.90;99.90;;;;;;5074434;28;20543;-78
2021/12/12 07:53:08;;;;;;;0.80;0.70;;;4.90;99.90;;;;;;5074199;28;20583;-77
2021/12/12 07:55:35;;;;;;;4.63;1.92;;;4.90;99.90;;;;;;5074505;28;20190;-78
2021/12/12 07:58:06;;;;;;;0.77;0.77;;;4.90;99.90;;;;;;5074110;28;20667;-78
2021/12/12 08:00:34;;;;;;;8.63;3.10;;;5.00;99.90;;;;;;5074039;28;20642;-78
2021/12/12 08:03:03;;;;;;;11.32;1.85;;;5.00;99.90;;;;;;5074179;28;20225;-77
2021/12/12 08:05:31;;;;;;;3.75;3.08;;;5.00;99.90;;;;;;5074891;28;20198;-78
2021/12/12 08:07:59;;;;;;;2.10;1.95;;;5.00;99.90;;;;;;5073808;28;20246;-78
2021/12/12 08:10:29;;;;;;;2.30;2.08;;;5.00;99.90;;;;;;5072497;28;20190;-78
2021/12/12 08:12:56;;;;;;;1.30;1.02;;;5.00;99.90;;;;;;5073517;28;20276;-77
2021/12/12 08:15:24;;;;;;;1.33;1.17;;;5.00;99.90;;;;;;5074100;28;20567;-78
2021/12/12 08:17:51;;;;;;;1.02;0.93;;;5.00;99.90;;;;;;5073813;28;20667;-79
2021/12/12 08:20:18;;;;;;;1.67;1.58;;;5.00;99.90;;;;;;5074004;28;20205;-77
2021/12/12 08:22:48;;;;;;;0.40;0.40;;;5.10;99.90;;;;;;5074406;28;20213;-78
2021/12/12 08:25:17;;;;;;;4.05;3.10;;;5.10;99.90;;;;;;5073712;28;20670;-78
2021/12/12 08:27:46;;;;;;;4.18;1.60;;;5.10;99.90;;;;;;5073993;28;20571;-77
2021/12/12 08:30:16;;;;;;;1.00;1.00;;;5.20;99.90;;;;;;5073388;28;20599;-77
2021/12/12 08:32:43;;;;;;;0.90;0.90;;;5.20;99.90;;;;;;5073824;28;20216;-77
2021/12/12 08:35:12;;;;;;;3.20;2.45;;;5.20;99.90;;;;;;5074075;28;20190;-78
2021/12/12 08:37:40;;;;;;;1.13;0.50;;;5.20;99.90;;;;;;5073503;28;20571;-75
2021/12/12 08:40:08;;;;;;;1.50;1.08;;;5.20;99.90;;;;;;5072628;28;20659;-77
2021/12/12 08:42:36;;;;;;;3.08;1.77;;;5.20;99.90;;;;;;5073728;28;20221;-78
2021/12/12 08:45:08;;;;;;;0.75;0.75;;;5.30;99.90;;;;;;5073764;28;20198;-77
2021/12/12 08:47:36;;;;;;;1.38;1.27;;;5.30;99.90;;;;;;5073546;28;20209;-78
2021/12/12 08:50:04;;;;;;;2.45;2.25;;;5.30;99.90;;;;;;5072743;28;20205;-78
2021/12/12 08:52:38;;;;;;;1.70;1.63;;;5.30;99.90;;;;;;5074356;28;20226;-78
2021/12/12 08:55:14;;;;;;;1.33;0.98;;;5.30;99.90;;;;;;5073378;28;20740;-77
2021/12/12 08:57:49;;;;;;;1.58;1.48;;;5.30;99.90;;;;;;5073134;28;20710;-78
2021/12/12 09:00:21;;;;;;;2.70;2.05;;;5.40;99.90;;;;;;5072896;28;20197;-78
2021/12/12 09:02:50;;;;;;;1.30;1.20;;;5.40;99.90;;;;;;5072992;28;20262;-77
2021/12/12 09:05:21;;;;;;;1.35;1.30;;;5.40;99.90;;;;;;5072901;28;20686;-78
2021/12/12 09:07:52;;;;;;;1.30;1.20;;;5.50;99.90;;;;;;5073054;28;20607;-75
2021/12/12 09:10:21;;;;;;;1.35;0.52;;;5.50;99.90;;;;;;5072410;28;20225;-78
2021/12/12 09:12:55;;;;;;;0.98;0.98;;;5.50;99.90;;;;;;5072680;28;20695;-78
2021/12/12 09:15:30;;;;;;;2.35;1.80;;;5.60;99.90;;;;;;5073036;28;20670;-78
2021/12/12 09:18:00;;;;;;;1.35;1.25;;;5.60;99.90;;;;;;5072950;28;20178;-78
2021/12/12 09:20:34;;;;;;;1.35;1.25;;;5.60;99.90;;;;;;5072973;28;20202;-78
2021/12/12 09:23:07;;;;;;;1.60;1.02;;;5.60;99.90;;;;;;5072564;28;20215;-77
2021/12/12 09:25:42;;;;;;;1.02;1.02;;;5.70;99.90;;;;;;5073242;28;20544;-77
2021/12/12 09:28:13;;;;;;;1.05;0.80;;;5.70;99.90;;;;;;5072415;28;20197;-79
2021/12/12 09:30:41;;;;;;;3.15;2.95;;;5.80;99.90;;;;;;5071818;28;20198;-78
2021/12/12 09:33:18;;;;;;;4.00;2.50;;;5.80;99.90;;;;;;5071872;28;20219;-78
2021/12/12 09:35:49;;;;;;;2.53;2.35;;;5.80;99.90;;;;;;5072948;28;20234;-75
2021/12/12 09:38:23;;;;;;;0.40;0.30;;;5.90;99.90;;;;;;5072609;28;20179;-78
2021/12/12 09:41:09;;;;;;;0.50;0.50;;;5.90;99.90;;;;;;5072484;28;20230;-78
2021/12/12 09:44:02;;;;;;;4.82;4.43;;;5.90;99.90;;;;;;5072306;28;20230;-77
2021/12/12 09:46:57;;;;;;;2.15;1.45;;;5.90;99.90;;;;;;5072414;28;20528;-77
2021/12/12 09:52:55;;;;;;;1.80;1.80;;;5.90;99.90;;;;;;5072072;28;20739;-78
2021/12/12 09:55:28;;;;;;;3.38;2.70;;;5.90;99.90;;;;;;5072267;28;20178;-77
2021/12/12 09:57:59;;;;;;;2.22;1.85;;;6.00;99.90;;;;;;5072091;28;20621;-79
2021/12/12 10:00:31;;;;;;;1.05;0.88;;;6.00;99.90;;;;;;5071829;28;20190;-78
2021/12/12 10:03:13;;;;;;;3.80;1.90;;;6.00;99.90;;;;;;5071577;28;20734;-78
2021/12/12 10:05:54;;;;;;;4.72;2.25;;;6.10;99.90;;;;;;5071953;28;20194;-78
2021/12/12 10:08:31;;;;;;;3.00;2.80;;;6.10;99.90;;;;;;5071795;28;20218;-78
2021/12/12 10:11:04;;;;;;;1.58;1.48;;;6.10;99.90;;;;;;5071867;28;20178;-79
2021/12/12 10:13:37;;;;;;;1.77;1.67;;;6.10;99.90;;;;;;5071349;28;20288;-76
2021/12/12 10:16:08;;;;;;;8.45;3.42;;;6.20;99.90;;;;;;5072070;28;20582;-78
2021/12/12 10:18:46;;;;;;;8.65;5.20;;;6.20;99.90;;;;;;5071928;28;20174;-78
2021/12/12 10:21:16;;;;;;;2.55;1.20;;;6.30;99.90;;;;;;5071828;28;20201;-78
2021/12/12 10:24:03;;;;;;;10.95;5.97;;;6.30;99.90;;;;;;5071925;28;20218;-76
2021/12/12 10:26:34;;;;;;;1.55;0.88;;;6.30;99.90;;;;;;5072066;28;20187;-77
2021/12/12 10:29:07;;;;;;;3.90;1.42;;;6.30;99.90;;;;;;5071563;28;20225;-77
2021/12/12 10:31:38;;;;;;;2.05;1.13;;;6.30;99.90;;;;;;5071794;28;20528;-78
2021/12/12 10:34:11;;;;;;;3.67;3.08;;;6.30;99.90;;;;;;5071150;28;20536;-79
2021/12/12 10:36:43;;;;;;;0.88;0.63;;;6.30;99.90;;;;;;5072247;28;20182;-78
2021/12/12 10:39:14;;;;;;;1.35;1.25;;;6.30;99.90;;;;;;5070968;28;20194;-78
2021/12/12 10:41:45;;;;;;;4.15;3.35;;;6.30;99.90;;;;;;5071696;28;20198;-77
2021/12/12 10:44:16;;;;;;;1.30;0.88;;;6.40;99.90;;;;;;5071137;28;20572;-79
2021/12/12 10:46:51;;;;;;;2.88;2.67;;;6.40;99.90;;;;;;5071803;28;20671;-78
2021/12/12 10:49:26;;;;;;;1.63;1.00;;;6.40;99.90;;;;;;5071392;28;20209;-78
2021/12/12 10:52:02;;;;;;;6.28;1.33;;;6.40;99.90;;;;;;5071319;28;20659;-78
2021/12/12 10:54:33;;;;;;;1.90;1.20;;;6.40;99.90;;;;;;5071629;28;20201;-79
2021/12/12 10:57:05;;;;;;;2.58;2.38;;;6.40;99.90;;;;;;5071817;28;20191;-78
2021/12/12 10:59:34;;;;;;;0.40;0.30;;;6.40;99.90;;;;;;5071427;28;20184;-78
2021/12/12 11:02:04;;;;;;;0.85;0.50;;;6.50;99.90;;;;;;5071191;28;20209;-78
2021/12/12 11:04:41;;;;;;;0.60;0.60;;;6.60;99.90;;;;;;5071761;28;20209;-80
2021/12/12 11:07:13;;;;;;;2.40;0.80;;;6.60;99.90;;;;;;5071457;28;20206;-78
2021/12/12 11:09:45;;;;;;;1.63;1.13;;;6.60;99.90;;;;;;5071217;28;20198;-80
2021/12/12 11:12:18;;;;;;;4.13;2.38;;;6.60;99.90;;;;;;5070618;28;20218;-77
2021/12/12 11:14:53;;;;;;;1.35;0.90;;;6.60;99.90;;;;;;5071546;28;20282;-76
2021/12/12 11:17:26;;;;;;;0.95;0.95;;;6.50;99.90;;;;;;5071469;28;20191;-77
2021/12/12 11:19:58;;;;;;;2.10;1.30;;;6.50;99.90;;;;;;5071378;28;20202;-78
2021/12/12 11:22:29;;;;;;;2.90;1.67;;;6.50;99.90;;;;;;5071209;28;20220;-78
2021/12/12 11:25:01;;;;;;;1.30;1.20;;;6.50;99.90;;;;;;5071670;28;20187;-78
2021/12/12 11:27:33;;;;;;;3.53;2.15;;;6.60;99.90;;;;;;5071647;28;20640;-78
2021/12/12 11:30:05;;;;;;;1.20;1.20;;;6.60;99.90;;;;;;5070703;28;20662;-78
2021/12/12 11:32:35;;;;;;;0.98;0.98;;;6.60;99.90;;;;;;5071816;28;20218;-78
2021/12/12 11:35:07;;;;;;;1.90;1.80;;;6.60;99.90;;;;;;5071261;28;20199;-78
2021/12/12 11:37:38;;;;;;;7.80;3.50;;;6.70;99.90;;;;;;5071536;28;20629;-77
2021/12/12 11:40:13;;;;;;;2.35;2.15;;;6.70;99.90;;;;;;5070686;28;20659;-78
2021/12/12 11:42:45;;;;;;;3.65;3.20;;;6.60;99.90;;;;;;5071305;28;20323;-78
2021/12/12 11:45:21;;;;;;;2.15;1.95;;;6.60;99.90;;;;;;5072126;28;20550;-80
2021/12/12 11:47:58;;;;;;;1.95;1.85;;;6.60;99.90;;;;;;5074813;28;20676;-73
2021/12/12 11:50:38;;;;;;;4.10;2.22;;;6.70;99.90;;;;;;5074282;28;20750;-77
2021/12/12 11:53:08;;;;;;;1.92;1.13;;;6.70;99.90;;;;;;5074478;28;20271;-78
2021/12/12 11:55:40;;;;;;;4.82;3.75;;;6.70;99.90;;;;;;5075202;28;20182;-78
2021/12/12 11:58:16;;;;;;;3.05;2.85;;;6.70;99.90;;;;;;5074784;28;20521;-78
2021/12/12 12:00:49;;;;;;;0.85;0.85;;;6.70;99.90;;;;;;5074467;28;20185;-78
2021/12/12 12:03:27;;;;;;;4.03;3.83;;;6.80;99.90;;;;;;5074560;28;20223;-78
2021/12/12 12:06:13;;;;;;;2.03;1.65;;;6.70;99.90;;;;;;5074076;28;20704;-78
2021/12/12 12:08:57;;;;;;;2.90;2.70;;;6.80;99.90;;;;;;5074769;28;20202;-78
2021/12/12 12:11:33;;;;;;;1.40;1.30;;;6.80;99.90;;;;;;5074602;28;20178;-76
2021/12/12 12:14:08;;;;;;;1.35;1.25;;;6.80;99.90;;;;;;5073416;28;20220;-79
2021/12/12 12:16:48;;;;;;;1.23;0.65;;;6.80;99.90;;;;;;5074776;28;20184;-78
2021/12/12 12:19:26;;;;;;;7.93;3.92;;;6.80;99.90;;;;;;5074312;28;20183;-78
2021/12/12 12:22:12;;;;;;;2.78;1.83;;;6.80;99.90;;;;;;5074140;28;20180;-78
2021/12/12 12:24:56;;;;;;;0.60;0.60;;;6.80;99.90;;;;;;5074212;28;20206;-79
2021/12/12 12:27:31;;;;;;;2.22;2.13;;;6.80;99.90;;;;;;5074674;28;20178;-77
2021/12/12 12:30:37;;;;;;;0.77;0.77;;;6.90;99.90;;;;;;5073687;28;20299;-78
2021/12/12 12:33:39;;;;;;;1.35;0.98;;;6.90;99.90;;;;;;5073417;28;20214;-78
2021/12/12 12:36:43;;;;;;;5.32;2.58;;;6.90;99.90;;;;;;5073840;28;20236;-78
2021/12/12 12:39:58;;;;;;;1.55;1.45;;;6.90;99.90;;;;;;5073824;28;20202;-78
2021/12/12 12:43:00;;;;;;;0.85;0.85;;;6.90;99.90;;;;;;5074024;28;20214;-78
2021/12/12 12:46:06;;;;;;;1.10;1.10;;;6.90;99.90;;;;;;5047979;28;20189;-78
2021/12/12 12:49:18;;;;;;;3.42;2.67;;;6.90;99.90;;;;;;5073914;28;20198;-78
2021/12/12 12:52:14;;;;;;;2.25;2.05;;;6.90;99.90;;;;;;5073697;28;20176;-76
2021/12/12 12:54:46;;;;;;;2.67;2.42;;;6.90;99.90;;;;;;5073774;28;20697;-78
2021/12/12 12:57:25;;;;;;;0.40;0.40;;;6.90;99.90;;;;;;5073617;28;20190;-79
2021/12/12 13:00:12;;;;;;;1.80;1.67;;;6.90;99.90;;;;;;5073691;28;20192;-74
2021/12/12 13:03:11;;;;;;;4.13;2.85;;;7.00;99.90;;;;;;5060325;28;20680;-76
2021/12/12 13:06:26;;;;;;;2.30;2.17;;;7.00;99.90;;;;;;5073677;28;20209;-78
2021/12/12 13:09:15;;;;;;;1.88;1.77;;;7.00;99.90;;;;;;5073597;28;20214;-77
2021/12/12 13:11:51;;;;;;;2.30;2.20;;;7.10;99.90;;;;;;5073375;28;20175;-78
2021/12/12 13:14:34;;;;;;;2.97;2.75;;;7.10;99.90;;;;;;5073331;28;20192;-78
2021/12/12 13:17:09;;;;;;;2.20;2.08;;;7.10;99.90;;;;;;5073694;28;20185;-77
2021/12/12 13:19:52;;;;;;;1.15;1.15;;;7.10;99.90;;;;;;5073671;28;20185;-79
2021/12/12 13:22:29;;;;;;;3.33;1.35;;;7.20;99.90;;;;;;5073287;28;20225;-78
2021/12/12 13:25:09;;;;;;;1.48;1.27;;;7.20;99.90;;;;;;5073679;28;20236;-77
2021/12/12 13:28:04;;;;;;;3.30;3.00;;;7.20;99.90;;;;;;5074513;28;20223;-78
2021/12/12 13:30:42;;;;;;;3.60;2.55;;;7.20;99.90;;;;;;5072776;28;20199;-77
2021/12/12 13:33:19;;;;;;;1.30;1.20;;;7.20;99.90;;;;;;5073193;28;20241;-78
2021/12/12 13:36:00;;;;;;;3.42;2.25;;;7.20;99.90;;;;;;5073431;28;20203;-74
2021/12/12 13:38:33;;;;;;;1.25;1.10;;;7.30;99.90;;;;;;5073088;28;20309;-78
2021/12/12 13:41:08;;;;;;;1.10;1.02;;;7.30;99.90;;;;;;5072863;28;20210;-79
2021/12/12 13:43:40;;;;;;;5.38;2.50;;;7.30;99.90;;;;;;5073315;28;20224;-78